Time;durP1;ratioP1;P1;durP2;ratioP2;P2;SDS_P1;SDS_P2;PMS_P1;PMS_P2;Temp;Humidity;BMP_temperature;BMP_pressure;BME280_temperature;BME280_humidity;BME280_pressure;Samples;Min_cycle;Max_cycle;Signal;HPM_P1;HPM_P2
2023/03/20 00:01:58;;;;;;;;;;;8.50;99.90;;;;;;5074581;28;19909;-75
2023/03/20 00:04:24;;;;;;;;;;;8.60;99.90;;;;;;5074545;28;20318;-75
2023/03/20 00:06:50;;;;;;;;;;;8.50;99.90;;;;;;5056495;28;19937;-75
2023/03/20 00:09:16;;;;;;;;;;;8.60;99.90;;;;;;5056434;28;20407;-75
2023/03/20 00:11:49;;;;;;;;;;;8.50;99.90;;;;;;5074459;28;19987;-75
2023/03/20 00:14:19;;;;;;;;;;;8.50;99.90;;;;;;5056884;28;20294;-75
2023/03/20 00:16:48;;;;;;;;;;;8.50;99.90;;;;;;5074235;28;19912;-75
2023/03/20 00:19:16;;;;;;;;;;;8.50;99.90;;;;;;5056295;28;19954;-75
2023/03/20 00:21:42;;;;;;;;;;;8.50;99.90;;;;;;5074153;28;19908;-75
2023/03/20 00:24:10;;;;;;;;;;;9.00;99.90;;;;;;5056312;28;19909;-75
2023/03/20 00:26:37;;;;;;;;;;;8.50;99.90;;;;;;5056357;28;19983;-75
2023/03/20 00:29:03;;;;;;;;;;;8.50;99.90;;;;;;5056320;28;19912;-75
2023/03/20 00:31:30;;;;;;;;;;;8.50;99.90;;;;;;5056175;28;19947;-75
2023/03/20 00:33:57;;;;;;;;;;;8.50;99.90;;;;;;5073965;28;19905;-75
2023/03/20 00:36:23;;;;;;;;;;;8.50;99.90;;;;;;5074294;28;20473;-75
2023/03/20 00:38:49;;;;;;;;;;;8.40;99.90;;;;;;5074206;28;19914;-75
2023/03/20 00:41:17;;;;;;;;;;;8.40;99.90;;;;;;5074263;28;19950;-75
2023/03/20 00:43:42;;;;;;;;;;;8.50;99.90;;;;;;5073938;28;19905;-75
2023/03/20 00:46:12;;;;;;;;;;;8.50;99.90;;;;;;5056293;28;20367;-75
2023/03/20 00:48:39;;;;;;;;;;;8.50;99.90;;;;;;5056189;28;19904;-75
2023/03/20 00:51:07;;;;;;;;;;;8.50;99.90;;;;;;5055926;28;19910;-75
2023/03/20 00:53:33;;;;;;;;;;;8.50;99.90;;;;;;5055997;28;19905;-75
2023/03/20 00:55:59;;;;;;;;;;;8.50;99.90;;;;;;5058504;28;19909;-75
2023/03/20 00:58:27;;;;;;;;;;;8.50;99.90;;;;;;5060114;28;20233;-75
2023/03/20 01:00:52;;;;;;;;;;;8.50;99.90;;;;;;5080084;28;19926;-75
2023/03/20 01:03:22;;;;;;;;;;;8.50;99.90;;;;;;5077648;28;19908;-75
2023/03/20 01:05:49;;;;;;;;;;;8.50;99.90;;;;;;5077270;28;19908;-75
2023/03/20 01:08:15;;;;;;;;;;;8.40;99.90;;;;;;5077289;28;20337;-75
2023/03/20 01:10:42;;;;;;;;;;;8.50;99.90;;;;;;5059255;28;19915;-75
2023/03/20 01:13:19;;;;;;;;;;;8.40;99.90;;;;;;5077285;28;19917;-75
2023/03/20 01:15:44;;;;;;;;;;;8.40;99.90;;;;;;5059119;28;19915;-75
2023/03/20 01:18:12;;;;;;;;;;;8.40;99.90;;;;;;5058690;28;19908;-75
2023/03/20 01:20:38;;;;;;;;;;;8.30;99.90;;;;;;5077069;28;19952;-75
2023/03/20 01:23:03;;;;;;;;;;;8.10;99.90;;;;;;5077129;28;20275;-75
2023/03/20 01:25:29;;;;;;;;;;;8.40;99.90;;;;;;5077590;28;19904;-75
2023/03/20 01:27:56;;;;;;;;;;;8.40;99.90;;;;;;5077513;28;19911;-75
2023/03/20 01:30:26;;;;;;;;;;;8.40;99.90;;;;;;5077076;28;19939;-75
2023/03/20 01:32:52;;;;;;;;;;;8.40;99.90;;;;;;5076879;28;20422;-75
2023/03/20 01:35:20;;;;;;;;;;;8.40;99.90;;;;;;5076623;28;19912;-75
2023/03/20 01:37:49;;;;;;;;;;;8.40;99.90;;;;;;5058941;28;20136;-75
2023/03/20 01:40:14;;;;;;;;;;;8.30;99.90;;;;;;5076843;28;19908;-75
2023/03/20 01:42:40;;;;;;;;;;;8.30;99.90;;;;;;5058965;28;19905;-75
2023/03/20 01:45:15;;;;;;;;;;;8.30;99.90;;;;;;5058681;28;19995;-75
2023/03/20 01:47:40;;;;;;;;;;;8.20;99.90;;;;;;5058482;28;19912;-75
2023/03/20 01:50:15;;;;;;;;;;;8.20;99.90;;;;;;5077263;28;19904;-75
2023/03/20 01:52:41;;;;;;;;;;;8.10;99.90;;;;;;5076648;28;19911;-75
2023/03/20 01:55:07;;;;;;;;;;;8.00;99.90;;;;;;5076232;28;20025;-75
2023/03/20 01:57:36;;;;;;;;;;;8.30;99.90;;;;;;5076320;28;19904;-75
2023/03/20 02:00:09;;;;;;;;;;;8.00;99.90;;;;;;5076317;28;19930;-75
2023/03/20 02:02:35;;;;;;;;;;;8.00;99.90;;;;;;5058444;28;19939;-75
2023/03/20 02:05:03;;;;;;;;;;;8.50;99.90;;;;;;5076357;28;19955;-75
2023/03/20 02:07:28;;;;;;;;;;;7.80;99.90;;;;;;5057030;28;19923;-75
2023/03/20 02:09:54;;;;;;;;;;;7.80;99.90;;;;;;5076233;28;19904;-75
2023/03/20 02:12:23;;;;;;;;;;;7.90;99.90;;;;;;5076821;28;19911;-75
2023/03/20 02:14:49;;;;;;;;;;;7.70;99.90;;;;;;5058111;28;20286;-75
2023/03/20 02:17:15;;;;;;;;;;;7.80;99.90;;;;;;5076142;28;19905;-75
2023/03/20 02:19:57;;;;;;;;;;;7.90;99.90;;;;;;5075958;28;19912;-75
2023/03/20 02:22:41;;;;;;;;;;;7.90;99.90;;;;;;5076841;28;19912;-74
2023/03/20 02:25:38;;;;;;;;;;;7.90;99.90;;;;;;5076012;28;19995;-75
2023/03/20 02:28:06;;;;;;;;;;;8.00;99.90;;;;;;5075881;28;20378;-75
2023/03/20 02:30:51;;;;;;;;;;;8.00;99.90;;;;;;5058015;28;20359;-75
2023/03/20 02:33:37;;;;;;;;;;;8.00;99.90;;;;;;5076285;28;19911;-75
2023/03/20 02:36:18;;;;;;;;;;;7.90;99.90;;;;;;5057770;28;19931;-75
2023/03/20 02:38:46;;;;;;;;;;;7.90;99.90;;;;;;5075808;28;20401;-75
2023/03/20 02:41:23;;;;;;;;;;;7.90;99.90;;;;;;5057620;28;19904;-75
2023/03/20 02:44:01;;;;;;;;;;;7.90;99.90;;;;;;5057766;28;19935;-75
2023/03/20 02:46:34;;;;;;;;;;;7.90;99.90;;;;;;5075639;28;19911;-75
2023/03/20 02:49:14;;;;;;;;;;;7.80;99.90;;;;;;5076156;28;20339;-75
2023/03/20 02:51:40;;;;;;;;;;;7.80;99.90;;;;;;5075452;28;20387;-75
2023/03/20 02:54:11;;;;;;;;;;;7.80;99.90;;;;;;5075834;28;19912;-75
2023/03/20 02:56:57;;;;;;;;;;;7.80;99.90;;;;;;5057313;28;19905;-75
2023/03/20 02:59:28;;;;;;;;;;;7.80;99.90;;;;;;5074524;28;19905;-75
2023/03/20 03:01:57;;;;;;;;;;;7.70;99.90;;;;;;5057369;28;19904;-75
2023/03/20 03:04:25;;;;;;;;;;;7.70;99.90;;;;;;5075484;28;19905;-75
2023/03/20 03:06:54;;;;;;;;;;;7.70;99.90;;;;;;5074922;28;19923;-75
2023/03/20 03:09:22;;;;;;;;;;;7.70;99.90;;;;;;5057083;28;20287;-75
2023/03/20 03:11:55;;;;;;;;;;;7.60;99.90;;;;;;5075309;28;20113;-75
2023/03/20 03:14:30;;;;;;;;;;;7.60;99.90;;;;;;5056974;28;19915;-75
2023/03/20 03:16:56;;;;;;;;;;;7.60;99.90;;;;;;5056855;28;19904;-75
2023/03/20 03:19:25;;;;;;;;;;;7.50;99.90;;;;;;5056511;28;19904;-75
2023/03/20 03:21:50;;;;;;;;;;;7.60;99.90;;;;;;5056850;28;19954;-75
2023/03/20 03:24:33;;;;;;;;;;;7.50;99.90;;;;;;5074834;28;20325;-75
2023/03/20 03:27:00;;;;;;;;;;;7.50;99.90;;;;;;5074634;28;19927;-75
2023/03/20 03:29:29;;;;;;;;;;;7.40;99.90;;;;;;5074609;28;19904;-75
2023/03/20 03:31:54;;;;;;;;;;;7.50;99.90;;;;;;5056687;28;19908;-75
2023/03/20 03:34:20;;;;;;;;;;;7.40;99.90;;;;;;5056416;28;19908;-75
2023/03/20 03:36:50;;;;;;;;;;;7.50;99.90;;;;;;5056500;28;19905;-75
2023/03/20 03:39:15;;;;;;;;;;;7.40;99.90;;;;;;5056395;28;19904;-75
2023/03/20 03:42:03;;;;;;;;;;;7.40;99.90;;;;;;5056565;28;20348;-75
2023/03/20 03:44:32;;;;;;;;;;;7.40;99.90;;;;;;5056513;28;19947;-75
2023/03/20 03:47:04;;;;;;;;;;;7.40;99.90;;;;;;5056383;28;19908;-75
2023/03/20 03:49:31;;;;;;;;;;;7.40;99.90;;;;;;5056361;28;19911;-75
2023/03/20 03:52:00;;;;;;;;;;;7.30;99.90;;;;;;5074435;28;20003;-75
2023/03/20 03:54:28;;;;;;;;;;;7.40;99.90;;;;;;5056098;28;19908;-75
2023/03/20 03:56:54;;;;;;;;;;;7.40;99.90;;;;;;5074068;28;19904;-75
2023/03/20 03:59:26;;;;;;;;;;;7.40;99.90;;;;;;5074018;28;19904;-75
2023/03/20 04:01:55;;;;;;;;;;;7.40;99.90;;;;;;5056214;28;20316;-75
2023/03/20 04:04:21;;;;;;;;;;;7.40;99.90;;;;;;5056085;28;19908;-75
2023/03/20 04:06:46;;;;;;;;;;;7.40;99.90;;;;;;5073837;28;19909;-74
2023/03/20 04:09:11;;;;;;;;;;;7.40;99.90;;;;;;5056269;28;19912;-75
2023/03/20 04:11:40;;;;;;;;;;;7.40;99.90;;;;;;5055816;28;20081;-75
2023/03/20 04:14:05;;;;;;;;;;;7.30;99.90;;;;;;5073857;28;19904;-75
2023/03/20 04:16:34;;;;;;;;;;;7.30;99.90;;;;;;5073874;28;19988;-75
2023/03/20 04:18:59;;;;;;;;;;;7.20;99.90;;;;;;5074179;28;19911;-75
2023/03/20 04:21:28;;;;;;;;;;;7.20;99.90;;;;;;5074298;28;19904;-75
2023/03/20 04:23:53;;;;;;;;;;;7.20;99.90;;;;;;5073755;28;20354;-75
2023/03/20 04:26:20;;;;;;;;;;;7.20;99.90;;;;;;5055783;28;19905;-75
2023/03/20 04:28:45;;;;;;;;;;;7.20;99.90;;;;;;5055769;28;19955;-75
2023/03/20 04:31:11;;;;;;;;;;;7.30;99.90;;;;;;5054742;28;20332;-75
2023/03/20 04:33:36;;;;;;;;;;;7.20;99.90;;;;;;5073664;28;20363;-75
2023/03/20 04:36:05;;;;;;;;;;;7.30;99.90;;;;;;5073480;28;19908;-75
2023/03/20 04:38:31;;;;;;;;;;;7.30;99.90;;;;;;5055558;28;20007;-75
2023/03/20 04:40:56;;;;;;;;;;;7.20;99.90;;;;;;5073676;28;19947;-75
2023/03/20 04:43:22;;;;;;;;;;;7.20;99.90;;;;;;5055689;28;19911;-75
2023/03/20 04:45:47;;;;;;;;;;;7.50;99.90;;;;;;5055406;28;19909;-75
2023/03/20 04:48:13;;;;;;;;;;;7.20;99.90;;;;;;5073590;28;19904;-75
2023/03/20 04:50:38;;;;;;;;;;;7.90;99.90;;;;;;5073525;28;19931;-75
2023/03/20 04:53:04;;;;;;;;;;;7.20;99.90;;;;;;5055550;28;19904;-75
2023/03/20 04:55:30;;;;;;;;;;;7.30;99.90;;;;;;5055408;28;19915;-75
2023/03/20 04:57:55;;;;;;;;;;;7.20;99.90;;;;;;5055526;28;19904;-75
2023/03/20 05:00:21;;;;;;;;;;;7.20;99.90;;;;;;5073394;28;19931;-75
2023/03/20 05:02:46;;;;;;;;;;;7.20;99.90;;;;;;5073417;28;19911;-75
2023/03/20 05:05:12;;;;;;;;;;;7.20;99.90;;;;;;5055483;28;19905;-75
2023/03/20 05:07:40;;;;;;;;;;;7.20;99.90;;;;;;5073987;28;19955;-75
2023/03/20 05:10:06;;;;;;;;;;;9.90;99.90;;;;;;5055721;28;19999;-75
2023/03/20 05:12:32;;;;;;;;;;;7.30;99.90;;;;;;5055822;28;19959;-75
2023/03/20 05:15:00;;;;;;;;;;;7.30;99.90;;;;;;5055920;28;19914;-75
2023/03/20 05:17:25;;;;;;;;;;;7.30;99.90;;;;;;5074253;28;19904;-75
2023/03/20 05:19:51;;;;;;;;;;;7.30;99.90;;;;;;5074119;28;19911;-75
2023/03/20 05:22:17;;;;;;;;;;;7.30;99.90;;;;;;5056012;28;19962;-75
2023/03/20 05:24:42;;;;;;;;;;;7.30;99.90;;;;;;5073756;28;20314;-75
2023/03/20 05:27:08;;;;;;;;;;;7.30;99.90;;;;;;5073842;28;19908;-75
2023/03/20 05:29:34;;;;;;;;;;;7.90;99.90;;;;;;5073733;28;20299;-75
2023/03/20 05:31:59;;;;;;;;;;;7.30;99.90;;;;;;5055637;28;19957;-75
2023/03/20 05:34:26;;;;;;;;;;;7.20;99.90;;;;;;5073701;28;19908;-75
2023/03/20 05:36:52;;;;;;;;;;;7.20;99.90;;;;;;5055517;28;19905;-75
2023/03/20 05:39:21;;;;;;;;;;;7.30;99.90;;;;;;5055631;28;19930;-75
2023/03/20 05:41:49;;;;;;;;;;;7.20;99.90;;;;;;5075387;28;19905;-75
2023/03/20 05:44:14;;;;;;;;;;;7.20;99.90;;;;;;5059338;28;19939;-75
2023/03/20 05:46:43;;;;;;;;;;;7.20;99.90;;;;;;5059319;28;19911;-75
2023/03/20 05:49:08;;;;;;;;;;;7.20;99.90;;;;;;5078001;28;19909;-75
2023/03/20 05:51:34;;;;;;;;;;;7.30;99.90;;;;;;5077648;28;19912;-75
2023/03/20 05:54:00;;;;;;;;;;;7.60;99.90;;;;;;5077339;28;19935;-75
2023/03/20 05:56:25;;;;;;;;;;;7.30;99.90;;;;;;5077140;28;20377;-75
2023/03/20 05:58:51;;;;;;;;;;;7.20;99.90;;;;;;5076433;28;19912;-75
2023/03/20 06:01:20;;;;;;;;;;;7.30;99.90;;;;;;5076343;28;19904;-75
2023/03/20 06:03:46;;;;;;;;;;;7.20;99.90;;;;;;5076855;28;19904;-75
2023/03/20 06:06:12;;;;;;;;;;;7.20;99.90;;;;;;5058526;28;19958;-75
2023/03/20 06:08:38;;;;;;;;;;;7.20;99.90;;;;;;5058294;28;19924;-75
2023/03/20 06:11:06;;;;;;;;;;;7.30;99.90;;;;;;5076314;28;20003;-75
2023/03/20 06:13:32;;;;;;;;;;;7.20;99.90;;;;;;5076749;28;19911;-75
2023/03/20 06:15:57;;;;;;;;;;;7.30;99.90;;;;;;5058716;28;20207;-75
2023/03/20 06:18:25;;;;;;;;;;;7.30;99.90;;;;;;5076652;28;20355;-75
2023/03/20 06:20:55;;;;;;;;;;;7.30;99.90;;;;;;5058795;28;19904;-75
2023/03/20 06:23:20;;;;;;;;;;;7.20;99.90;;;;;;5076880;28;19991;-75
2023/03/20 06:25:46;;;;;;;;;;;7.20;99.90;;;;;;5076507;28;19963;-75
2023/03/20 06:28:11;;;;;;;;;;;7.20;99.90;;;;;;5059509;28;19904;-75
2023/03/20 06:30:37;;;;;;;;;;;7.30;99.90;;;;;;5058531;28;19912;-75
2023/03/20 06:33:03;;;;;;;;;;;7.20;99.90;;;;;;5076456;28;20277;-75
2023/03/20 06:35:30;;;;;;;;;;;7.20;99.90;;;;;;5076371;28;19919;-75
2023/03/20 06:37:56;;;;;;;;;;;7.20;99.90;;;;;;5076277;28;19912;-76
2023/03/20 06:40:21;;;;;;;;;;;7.30;99.90;;;;;;5076373;28;20260;-76
2023/03/20 06:42:47;;;;;;;;;;;7.30;99.90;;;;;;5076234;28;19904;-76
2023/03/20 06:45:12;;;;;;;;;;;7.20;99.90;;;;;;5076386;28;20322;-76
2023/03/20 06:47:38;;;;;;;;;;;7.30;99.90;;;;;;5075962;28;19947;-76
2023/03/20 06:50:03;;;;;;;;;;;7.20;99.90;;;;;;5076655;28;19951;-76
2023/03/20 06:52:29;;;;;;;;;;;7.30;99.90;;;;;;5057649;28;19905;-76
2023/03/20 06:54:55;;;;;;;;;;;7.50;99.90;;;;;;5057837;28;20299;-76
2023/03/20 06:57:21;;;;;;;;;;;7.30;99.90;;;;;;5057735;28;19995;-76
2023/03/20 06:59:46;;;;;;;;;;;7.80;99.90;;;;;;5075843;28;20340;-76
2023/03/20 07:02:12;;;;;;;;;;;7.30;99.90;;;;;;5057768;28;19905;-77
2023/03/20 07:04:38;;;;;;;;;;;7.30;99.90;;;;;;5075655;28;20641;-76
2023/03/20 07:07:03;;;;;;;;;;;7.30;99.90;;;;;;5057627;28;20007;-76
2023/03/20 07:09:29;;;;;;;;;;;7.30;99.90;;;;;;5057531;28;19905;-76
2023/03/20 07:11:58;;;;;;;;;;;7.30;99.90;;;;;;5057699;28;19962;-76
2023/03/20 07:14:24;;;;;;;;;;;7.30;99.90;;;;;;5058057;28;19930;-76
2023/03/20 07:16:50;;;;;;;;;;;7.40;99.90;;;;;;5075525;28;19909;-76
2023/03/20 07:19:15;;;;;;;;;;;7.40;99.90;;;;;;5075529;28;19911;-76
2023/03/20 07:21:41;;;;;;;;;;;7.50;99.90;;;;;;5057715;28;20268;-76
2023/03/20 07:24:07;;;;;;;;;;;7.40;99.90;;;;;;5075354;28;20008;-76
2023/03/20 07:26:35;;;;;;;;;;;7.50;99.90;;;;;;5057256;28;19904;-76
2023/03/20 07:29:01;;;;;;;;;;;7.50;99.90;;;;;;5057101;28;19971;-76
2023/03/20 07:31:28;;;;;;;;;;;8.10;99.90;;;;;;5075045;28;19905;-76
2023/03/20 07:33:54;;;;;;;;;;;7.90;99.90;;;;;;5057294;28;19912;-76
2023/03/20 07:36:20;;;;;;;;;;;7.60;99.90;;;;;;5057183;28;19908;-76
2023/03/20 07:38:45;;;;;;;;;;;7.60;99.90;;;;;;5057228;28;19904;-76
2023/03/20 07:41:11;;;;;;;;;;;7.60;99.90;;;;;;5057010;28;19911;-76
2023/03/20 07:43:36;;;;;;;;;;;7.70;99.90;;;;;;5074997;28;19904;-76
2023/03/20 07:46:03;;;;;;;;;;;7.80;99.90;;;;;;5074839;28;19904;-76
2023/03/20 07:48:28;;;;;;;;;;;8.30;99.90;;;;;;5074759;28;19915;-76
2023/03/20 07:50:54;;;;;;;;;;;7.80;99.90;;;;;;5075080;28;19995;-76
2023/03/20 07:53:19;;;;;;;;;;;7.80;99.90;;;;;;5074784;28;19940;-76
2023/03/20 07:55:45;;;;;;;;;;;7.90;99.90;;;;;;5074701;28;19962;-76
2023/03/20 07:58:10;;;;;;;;;;;8.10;99.90;;;;;;5056856;28;19943;-76
2023/03/20 08:00:36;;;;;;;;;;;7.90;99.90;;;;;;5056755;28;19908;-75
2023/03/20 08:03:02;;;;;;;;;;;7.90;99.90;;;;;;5075242;28;19904;-76
2023/03/20 08:05:27;;;;;;;;;;;8.00;99.90;;;;;;5073660;28;20274;-76
2023/03/20 08:07:53;;;;;;;;;;;8.10;99.90;;;;;;5074483;28;20011;-76
2023/03/20 08:10:18;;;;;;;;;;;8.20;99.90;;;;;;5056434;28;19995;-76
2023/03/20 08:12:44;;;;;;;;;;;8.20;99.90;;;;;;5056547;28;19905;-75
2023/03/20 08:15:09;;;;;;;;;;;8.30;99.90;;;;;;5074954;28;19914;-76
2023/03/20 08:17:35;;;;;;;;;;;8.40;99.90;;;;;;5074434;28;20050;-76
2023/03/20 08:20:00;;;;;;;;;;;8.40;99.90;;;;;;5074395;28;20058;-76
2023/03/20 08:22:26;;;;;;;;;;;8.40;99.90;;;;;;5056405;28;19912;-76
2023/03/20 08:24:51;;;;;;;;;;;8.40;99.90;;;;;;5074825;28;20002;-75
2023/03/20 08:27:17;;;;;;;;;;;8.40;99.90;;;;;;5074382;28;20367;-76
2023/03/20 08:29:42;;;;;;;;;;;8.40;99.90;;;;;;5074548;28;19905;-76
2023/03/20 08:32:08;;;;;;;;;;;9.40;99.90;;;;;;5056698;28;20423;-76
2023/03/20 08:34:33;;;;;;;;;;;8.40;99.90;;;;;;5074924;28;19915;-76
2023/03/20 08:36:59;;;;;;;;;;;8.50;99.90;;;;;;5056860;28;19911;-76
2023/03/20 08:39:24;;;;;;;;;;;8.70;99.90;;;;;;5075125;28;19933;-76
2023/03/20 08:41:50;;;;;;;;;;;8.50;99.90;;;;;;5056769;28;19905;-76
2023/03/20 08:44:15;;;;;;;;;;;8.60;99.90;;;;;;5074554;28;20305;-76
2023/03/20 08:46:43;;;;;;;;;;;8.60;99.90;;;;;;5074808;28;19930;-76
2023/03/20 08:49:09;;;;;;;;;;;8.60;99.90;;;;;;5056745;28;20001;-75
2023/03/20 08:51:34;;;;;;;;;;;8.50;99.90;;;;;;5075524;28;19904;-76
2023/03/20 08:54:00;;;;;;;;;;;8.30;99.90;;;;;;5075252;28;19904;-76
2023/03/20 08:56:25;;;;;;;;;;;8.30;99.90;;;;;;5058597;28;20371;-76
2023/03/20 08:58:52;;;;;;;;;;;8.40;99.90;;;;;;5056804;28;19911;-75
2023/03/20 09:01:18;;;;;;;;;;;8.30;99.90;;;;;;5074409;28;19915;-76
2023/03/20 09:03:44;;;;;;;;;;;8.20;99.90;;;;;;5056662;28;20364;-76
2023/03/20 09:06:09;;;;;;;;;;;8.20;99.90;;;;;;5074222;28;19908;-76
2023/03/20 09:08:35;;;;;;;;;;;8.30;99.90;;;;;;5074441;28;20011;-76
2023/03/20 09:11:01;;;;;;;;;;;8.30;99.90;;;;;;5074688;28;19904;-75
2023/03/20 09:13:26;;;;;;;;;;;8.30;99.90;;;;;;5074180;28;20360;-76
2023/03/20 09:15:52;;;;;;;;;;;8.30;99.90;;;;;;5075056;28;19908;-75
2023/03/20 09:18:18;;;;;;;;;;;9.00;99.90;;;;;;5078704;28;20371;-76
2023/03/20 09:20:44;;;;;;;;;;;8.40;99.90;;;;;;5060109;28;19904;-76
2023/03/20 09:23:10;;;;;;;;;;;9.10;99.90;;;;;;5060216;28;20368;-76
2023/03/20 09:25:35;;;;;;;;;;;8.40;99.90;;;;;;5059959;28;19948;-75
2023/03/20 09:28:01;;;;;;;;;;;8.70;99.90;;;;;;5059835;28;19927;-76
2023/03/20 09:30:26;;;;;;;;;;;8.50;99.90;;;;;;5059789;28;20241;-76
2023/03/20 09:32:51;;;;;;;;;;;8.90;99.90;;;;;;5078295;28;19911;-76
2023/03/20 09:35:17;;;;;;;;;;;8.60;99.90;;;;;;5060126;28;19908;-76
2023/03/20 09:37:43;;;;;;;;;;;8.70;99.90;;;;;;5059940;28;19904;-76
2023/03/20 09:40:24;;;;;;;;;;;8.80;99.90;;;;;;5059900;28;19905;-76
2023/03/20 09:43:10;;;;;;;;;;;8.70;99.90;;;;;;5060032;28;20272;-76
2023/03/20 09:45:44;;;;;;;;;;;9.10;99.90;;;;;;5049233;28;19999;-76
2023/03/20 09:48:12;;;;;;;;;;;8.80;99.90;;;;;;5077860;28;19907;-76
2023/03/20 09:50:45;;;;;;;;;;;8.80;99.90;;;;;;5059756;28;19904;-76
2023/03/20 09:53:15;;;;;;;;;;;8.90;99.90;;;;;;5077578;28;19912;-76
2023/03/20 09:55:42;;;;;;;;;;;9.00;99.90;;;;;;5077438;28;19998;-76
2023/03/20 09:58:10;;;;;;;;;;;9.10;99.90;;;;;;5077381;28;19908;-76
2023/03/20 10:00:35;;;;;;;;;;;9.30;99.90;;;;;;5059125;28;20424;-75
2023/03/20 10:03:03;;;;;;;;;;;9.40;99.90;;;;;;5076907;28;19948;-76
2023/03/20 10:05:28;;;;;;;;;;;9.40;99.90;;;;;;5058916;28;19915;-75
2023/03/20 10:07:55;;;;;;;;;;;9.30;99.90;;;;;;5058820;28;19912;-75
2023/03/20 10:10:25;;;;;;;;;;;9.30;99.90;;;;;;5059136;28;19995;-75
2023/03/20 10:12:55;;;;;;;;;;;9.30;99.90;;;;;;5076682;28;19904;-76
2023/03/20 10:15:32;;;;;;;;;;;9.30;99.90;;;;;;5058795;28;19999;-75
2023/03/20 10:17:58;;;;;;;;;;;9.30;99.90;;;;;;5058810;28;19904;-76
2023/03/20 10:20:33;;;;;;;;;;;9.30;99.90;;;;;;5058441;28;20379;-75
2023/03/20 10:23:02;;;;;;;;;;;9.30;99.90;;;;;;5076607;28;20053;-76
2023/03/20 10:25:36;;;;;;;;;;;9.30;99.90;;;;;;5058398;28;20279;-75
2023/03/20 10:28:04;;;;;;;;;;;9.40;99.90;;;;;;5057520;28;19904;-75
2023/03/20 10:30:43;;;;;;;;;;;9.50;99.90;;;;;;5058757;28;20038;-76
2023/03/20 10:33:28;;;;;;;;;;;9.50;99.90;;;;;;5058410;28;19908;-75
2023/03/20 10:35:56;;;;;;;;;;;9.50;99.90;;;;;;5076123;28;19915;-75
2023/03/20 10:38:26;;;;;;;;;;;9.50;99.90;;;;;;5076243;28;19905;-75
2023/03/20 10:40:53;;;;;;;;;;;9.60;99.90;;;;;;5076363;28;20344;-76
2023/03/20 10:43:20;;;;;;;;;;;9.60;99.90;;;;;;5058075;28;19908;-76
2023/03/20 10:45:52;;;;;;;;;;;9.70;99.90;;;;;;5076006;28;19908;-76
2023/03/20 10:48:22;;;;;;;;;;;9.70;99.90;;;;;;5076575;28;19904;-75
2023/03/20 10:50:50;;;;;;;;;;;9.70;99.90;;;;;;5076068;28;19927;-75
2023/03/20 10:53:25;;;;;;;;;;;9.60;99.90;;;;;;5076129;28;19904;-75
2023/03/20 10:55:53;;;;;;;;;;;9.60;99.90;;;;;;5057859;28;19912;-75
2023/03/20 10:58:21;;;;;;;;;;;9.40;99.90;;;;;;5058198;28;19909;-75
2023/03/20 11:00:47;;;;;;;;;;;9.50;99.90;;;;;;5057782;28;19904;-75
2023/03/20 11:03:23;;;;;;;;;;;9.40;99.90;;;;;;5075731;28;19943;-75
2023/03/20 11:05:51;;;;;;;;;;;9.40;99.90;;;;;;5057830;28;19909;-74
2023/03/20 11:08:21;;;;;;;;;;;9.40;99.90;;;;;;5058014;28;19962;-75
2023/03/20 11:10:56;;;;;;;;;;;9.80;99.90;;;;;;5058046;28;20280;-75
2023/03/20 11:13:24;;;;;;;;;;;9.40;99.90;;;;;;5075835;28;19904;-75
2023/03/20 11:15:50;;;;;;;;;;;9.40;99.90;;;;;;5057503;28;20325;-76
2023/03/20 11:18:16;;;;;;;;;;;9.40;99.90;;;;;;5075532;28;19908;-76
2023/03/20 11:20:46;;;;;;;;;;;9.40;99.90;;;;;;5075656;28;20356;-75
2023/03/20 11:23:16;;;;;;;;;;;9.40;99.90;;;;;;5075762;28;20006;-75
2023/03/20 11:25:48;;;;;;;;;;;9.50;99.90;;;;;;5075251;28;19908;-75
2023/03/20 11:28:30;;;;;;;;;;;9.40;99.90;;;;;;5057444;28;19908;-75
2023/03/20 11:31:04;;;;;;;;;;;9.50;99.90;;;;;;5075268;28;19954;-75
2023/03/20 11:33:30;;;;;;;;;;;9.60;99.90;;;;;;5057429;28;20362;-75
2023/03/20 11:35:57;;;;;;;;;;;9.70;99.90;;;;;;5057143;28;19909;-75
2023/03/20 11:38:22;;;;;;;;;;;9.80;99.90;;;;;;5074880;28;19904;-76
2023/03/20 11:40:51;;;;;;;;;;;9.90;99.90;;;;;;5075531;28;20382;-75
2023/03/20 11:43:26;;;;;;;;;;;9.90;99.90;;;;;;5075236;28;19932;-77
2023/03/20 11:45:59;;;;;;;;;;;9.90;99.90;;;;;;5057250;28;19905;-77
2023/03/20 11:48:45;;;;;;;;;;;9.90;99.90;;;;;;5058505;28;19904;-77
2023/03/20 11:51:14;;;;;;;;;;;9.90;99.90;;;;;;5074640;28;19905;-77
2023/03/20 11:53:45;;;;;;;;;;;10.00;99.90;;;;;;5057284;28;19905;-77
2023/03/20 11:56:20;;;;;;;;;;;10.00;99.90;;;;;;5056813;28;19914;-76
2023/03/20 11:58:50;;;;;;;;;;;10.00;99.90;;;;;;5056935;28;19954;-77
2023/03/20 12:01:15;;;;;;;;;;;10.00;99.90;;;;;;5056801;28;19908;-76
2023/03/20 12:03:41;;;;;;;;;;;9.90;99.90;;;;;;5074823;28;19957;-76
2023/03/20 12:06:11;;;;;;;;;;;9.90;99.90;;;;;;5056839;28;19908;-76
2023/03/20 12:08:38;;;;;;;;;;;9.70;99.90;;;;;;5074560;28;19923;-77
2023/03/20 12:11:42;;;;;;;;;;;9.70;99.90;;;;;;5074558;28;19904;-76
2023/03/20 12:14:13;;;;;;;;;;;9.80;99.90;;;;;;4993381;28;19913;-77
2023/03/20 12:16:40;;;;;;;;;;;10.70;99.90;;;;;;4977015;28;19921;-77
2023/03/20 12:19:11;;;;;;;;;;;9.70;99.90;;;;;;5034551;28;20398;-77
2023/03/20 12:21:37;;;;;;;;;;;9.50;99.90;;;;;;5056369;28;19948;-77
2023/03/20 12:24:12;;;;;;;;;;;9.60;99.90;;;;;;5056487;28;19950;-77
2023/03/20 12:26:49;;;;;;;;;;;9.60;99.90;;;;;;5057129;28;20405;-77
2023/03/20 12:29:30;;;;;;;;;;;9.60;99.90;;;;;;5056390;28;20003;-77
2023/03/20 12:31:58;;;;;;;;;;;9.60;99.90;;;;;;5074385;28;19905;-76
2023/03/20 12:34:31;;;;;;;;;;;9.60;99.90;;;;;;5074175;28;20375;-77
2023/03/20 12:36:57;;;;;;;;;;;9.60;99.90;;;;;;5056278;28;19904;-77
2023/03/20 12:39:24;;;;;;;;;;;9.80;99.90;;;;;;5056477;28;19904;-77
2023/03/20 12:42:08;;;;;;;;;;;9.60;99.90;;;;;;5074326;28;19911;-77
2023/03/20 12:44:38;;;;;;;;;;;9.60;99.90;;;;;;5056418;28;19911;-77
2023/03/20 12:47:06;;;;;;;;;;;9.60;99.90;;;;;;5056426;28;19908;-76
2023/03/20 12:49:40;;;;;;;;;;;9.60;99.90;;;;;;5056146;28;19904;-76
2023/03/20 12:52:11;;;;;;;;;;;9.60;99.90;;;;;;5055673;28;19905;-76
2023/03/20 12:54:36;;;;;;;;;;;9.60;99.90;;;;;;5056209;28;19986;-76
2023/03/20 12:57:02;;;;;;;;;;;9.40;99.90;;;;;;5073942;28;19904;-76
2023/03/20 12:59:43;;;;;;;;;;;9.30;99.90;;;;;;5074224;28;19904;-76
2023/03/20 13:02:33;;;;;;;;;;;9.40;99.90;;;;;;5073979;28;19908;-76
2023/03/20 13:05:23;;;;;;;;;;;9.30;99.90;;;;;;5074578;28;19954;-76
2023/03/20 13:07:48;;;;;;;;;;;9.30;99.90;;;;;;5073413;28;20342;-76
2023/03/20 13:10:21;;;;;;;;;;;9.20;99.90;;;;;;5055375;28;19983;-76
2023/03/20 13:12:50;;;;;;;;;;;9.20;99.90;;;;;;5073253;28;19949;-75
2023/03/20 13:15:18;;;;;;;;;;;9.20;99.90;;;;;;5055505;28;20011;-76
2023/03/20 13:18:03;;;;;;;;;;;9.20;99.90;;;;;;5056112;28;19904;-76
2023/03/20 13:20:48;;;;;;;;;;;9.20;99.90;;;;;;5055936;28;19908;-77
2023/03/20 13:23:23;;;;;;;;;;;9.20;99.90;;;;;;5055833;28;20268;-77
2023/03/20 13:26:04;;;;;;;;;;;9.30;99.90;;;;;;5055700;28;19909;-77
2023/03/20 13:28:34;;;;;;;;;;;9.20;99.90;;;;;;5055960;28;19905;-76
2023/03/20 13:31:05;;;;;;;;;;;9.20;99.90;;;;;;5073757;28;19930;-76
2023/03/20 13:33:40;;;;;;;;;;;9.20;99.90;;;;;;5055772;28;20264;-77
2023/03/20 13:36:06;;;;;;;;;;;9.20;99.90;;;;;;5055952;28;19915;-77
2023/03/20 13:38:40;;;;;;;;;;;9.10;99.90;;;;;;5055725;28;20321;-76
2023/03/20 13:41:10;;;;;;;;;;;9.10;99.90;;;;;;5073642;28;20035;-76
2023/03/20 13:43:56;;;;;;;;;;;9.10;99.90;;;;;;5073746;28;20283;-75
2023/03/20 13:46:27;;;;;;;;;;;9.10;99.90;;;;;;5055530;28;19904;-76
2023/03/20 13:48:57;;;;;;;;;;;9.00;99.90;;;;;;5056282;28;20050;-76
2023/03/20 13:51:25;;;;;;;;;;;9.00;99.90;;;;;;5055634;28;19911;-76
2023/03/20 13:54:14;;;;;;;;;;;9.00;99.90;;;;;;5073821;28;19908;-76
2023/03/20 13:56:39;;;;;;;;;;;9.10;99.90;;;;;;5073433;28;20264;-76
2023/03/20 13:59:14;;;;;;;;;;;9.10;99.90;;;;;;5073411;28;19950;-76
2023/03/20 14:01:49;;;;;;;;;;;9.10;99.90;;;;;;5055425;28;19991;-77
2023/03/20 14:04:20;;;;;;;;;;;9.10;99.90;;;;;;5058266;28;19904;-76
2023/03/20 14:06:50;;;;;;;;;;;9.20;99.90;;;;;;5058975;28;19958;-76
2023/03/20 14:09:29;;;;;;;;;;;9.20;99.90;;;;;;5058981;28;19904;-77
2023/03/20 14:12:00;;;;;;;;;;;9.20;99.90;;;;;;5058996;28;19904;-76
2023/03/20 14:14:27;;;;;;;;;;;9.20;99.90;;;;;;5076772;28;19905;-76
2023/03/20 14:17:00;;;;;;;;;;;9.70;99.90;;;;;;5058999;28;20329;-76
2023/03/20 14:19:26;;;;;;;;;;;9.20;99.90;;;;;;5058757;28;19970;-76
2023/03/20 14:21:53;;;;;;;;;;;9.30;99.90;;;;;;5058841;28;19904;-76
2023/03/20 14:24:19;;;;;;;;;;;9.10;99.90;;;;;;5058647;28;19915;-76
2023/03/20 14:26:49;;;;;;;;;;;9.10;99.90;;;;;;5058440;28;20402;-76
2023/03/20 14:29:14;;;;;;;;;;;9.10;99.90;;;;;;5058522;28;20429;-76
2023/03/20 14:31:44;;;;;;;;;;;9.10;99.90;;;;;;5076465;28;19904;-77
2023/03/20 14:34:17;;;;;;;;;;;9.10;99.90;;;;;;5076393;28;19936;-77
2023/03/20 14:37:01;;;;;;;;;;;9.10;99.90;;;;;;5076404;28;19908;-77
2023/03/20 14:39:35;;;;;;;;;;;9.10;99.90;;;;;;5076429;28;19904;-77
2023/03/20 14:42:20;;;;;;;;;;;9.10;99.90;;;;;;5058316;28;19927;-76